Bookmark and Share
Track history (hours):
 

Harry B. Settoon

More information available from US FCC via Universal Licensing System and Coast Guard Vessel Documentation Center.

Last reported at 2014-Apr-20 15:33 UTC. Time now 2014-Apr-20 16:07 UTC.
Position N 29°39' W 091°15'.

; draft 1.8 m.

Type: Tug. MMSI: 367369920.

NotesDate/timePositionNaut miles runAvg speedWind from/ knotsBaromVisibWave heightAir tempDewpointWater temp
2014-Apr-20 15:33N 29°39' W 091°15'4 4.1
2014-Apr-20 14:33N 29°38' W 091°20'6 5.3
2014-Apr-20 13:22N 29°40' W 091°27'1 1.4
2014-Apr-20 12:33N 29°41' W 091°28'0 0.0
2014-Apr-20 11:32N 29°41' W 091°28'0 0.0
2014-Apr-20 10:32N 29°41' W 091°28'0 0.0
2014-Apr-20 09:08N 29°41' W 091°28'0 0.0
2014-Apr-20 08:21N 29°41' W 091°28'0 0.0
2014-Apr-20 07:23N 29°41' W 091°28'0 0.0
2014-Apr-20 06:32N 29°41' W 091°28'0 0.0
2014-Apr-20 05:33N 29°41' W 091°28'8 7.7
2014-Apr-20 04:33N 29°38' W 091°20'8 7.7
2014-Apr-20 03:33N 29°41' W 091°11'4 4.5
2014-Apr-20 02:33N 29°38' W 091°07'6 6.1
2014-Apr-20 01:32N 29°37' W 091°00'4 0.7
2014-Apr-19 20:21N 29°38' W 090°56'3 1.1
2014-Apr-19 17:33N 29°37' W 090°59'6 6.3
2014-Apr-19 16:33N 29°38' W 091°06'4 4.4
2014-Apr-19 15:33N 29°41' W 091°11'4 3.8
2014-Apr-19 14:33N 29°40' W 091°15'1 1.4
2014-Apr-19 13:33N 29°39' W 091°16'5 5.3
2014-Apr-19 12:33N 29°39' W 091°22'5 5.1
2014-Apr-19 11:32N 29°41' W 091°28'0 0.1
2014-Apr-19 10:04N 29°41' W 091°28'0 0.0
2014-Apr-19 06:33N 29°41' W 091°28'2 0.1
2014-Apr-18 08:32N 29°40' W 091°26'8 8.2
2014-Apr-18 07:33N 29°39' W 091°17'6 6.2
2014-Apr-18 06:34N 29°41' W 091°10'0 0.4
2014-Apr-18 05:34N 29°41' W 091°10'2 2.3
2014-Apr-18 04:33N 29°40' W 091°08'6 5.9
2014-Apr-18 03:34N 29°37' W 091°02'5 4.0
2014-Apr-18 02:20N 29°38' W 090°56'0 0.0
2014-Apr-18 01:33N 29°38' W 090°56'0 0.0
2014-Apr-18 00:33N 29°38' W 090°56'0 0.0
2014-Apr-17 23:33N 29°38' W 090°56'0 0.0
2014-Apr-17 22:33N 29°38' W 090°56'0 0.0
2014-Apr-17 21:33N 29°38' W 090°56'0 0.0
2014-Apr-17 20:34N 29°38' W 090°56'0 0.1
2014-Apr-17 18:18N 29°37' W 090°56'2 1.7
2014-Apr-17 17:13N 29°38' W 090°58'3 4.1
2014-Apr-17 16:33N 29°37' W 091°01'6 5.8
2014-Apr-17 15:33N 29°39' W 091°08'4 3.5
2014-Apr-17 14:34N 29°41' W 091°11'3 2.9
2014-Apr-17 13:34N 29°40' W 091°14'5 5.5
2014-Apr-17 12:33N 29°38' W 091°20'7 1.2
2014-Apr-17 06:31N 29°41' W 091°28'2 2.0
2014-Apr-17 05:34N 29°40' W 091°26'8 7.8
2014-Apr-17 04:34N 29°39' W 091°17'6 6.4
2014-Apr-17 03:34N 29°41' W 091°10'1 1.2
2014-Apr-17 02:34N 29°41' W 091°09'1 1.4
2014-Apr-17 01:33N 29°40' W 091°08'2 1.7
2014-Apr-17 00:33N 29°40' W 091°06'1 0.9
2014-Apr-16 23:34N 29°39' W 091°06'9 1.4
2014-Apr-16 17:13N 29°38' W 090°56'2 0.6
2014-Apr-16 13:10N 29°37' W 090°59'3 4.4
2014-Apr-16 12:33N 29°37' W 091°02'6 5.6
2014-Apr-16 11:34N 29°39' W 091°08'4 3.5
2014-Apr-16 10:34N 29°41' W 091°11'3 3.5
2014-Apr-16 09:34N 29°39' W 091°15'5 4.9
2014-Apr-16 08:33N 29°38' W 091°20'5 0.2
2014-Apr-15 00:29N 29°40' W 091°26'7 8.1
2014-Apr-14 23:34N 29°39' W 091°17'6 6.3
2014-Apr-14 22:34N 29°41' W 091°10'1 0.6
2014-Apr-14 21:34N 29°41' W 091°10'5 5.5
2014-Apr-14 20:34N 29°38' W 091°05'5 5.4
2014-Apr-14 19:34N 29°37' W 090°59'2 2.2
2014-Apr-14 18:33N 29°38' W 090°56'0 0.0
2014-Apr-14 17:32N 29°38' W 090°56'0 0.0
2014-Apr-14 16:30N 29°38' W 090°56'0 0.0
2014-Apr-14 15:30N 29°38' W 090°56'0 0.0
2014-Apr-14 13:32N 29°38' W 090°56'5 2.3
2014-Apr-14 11:33N 29°37' W 091°01'6 5.6
2014-Apr-14 10:33N 29°39' W 091°07'4 3.5
2014-Apr-14 09:33N 29°41' W 091°11'2 1.8
2014-Apr-14 08:34N 29°41' W 091°13'5 5.0
2014-Apr-14 07:34N 29°39' W 091°18'5 5.2
2014-Apr-14 06:33N 29°39' W 091°24'4 0.2
2014-Apr-13 14:33N 29°41' W 091°28'5 5.2
2014-Apr-13 13:33N 29°39' W 091°22'3 3.2
2014-Apr-13 12:33N 29°39' W 091°19'7 7.2
2014-Apr-13 11:34N 29°41' W 091°11'6 5.7
2014-Apr-13 10:33N 29°38' W 091°05'6 5.7
2014-Apr-13 09:33N 29°37' W 090°59'2 2.3
2014-Apr-13 08:29N 29°38' W 090°56'0 0.0
2014-Apr-13 07:33N 29°38' W 090°56'0 0.0
2014-Apr-13 06:32N 29°38' W 090°56'0 0.0
2014-Apr-13 05:32N 29°38' W 090°56'0 0.0
2014-Apr-13 04:32N 29°38' W 090°56'0 0.0
2014-Apr-13 03:28N 29°38' W 090°56'0 0.0
2014-Apr-13 02:33N 29°38' W 090°56'3 2.4
2014-Apr-13 01:30N 29°37' W 090°59'5 5.3
2014-Apr-13 00:34N 29°38' W 091°04'5 5.0
2014-Apr-12 23:34N 29°41' W 091°09'2 2.3
2014-Apr-12 22:34N 29°41' W 091°11'4 4.3
2014-Apr-12 21:34N 29°39' W 091°16'5 5.1
2014-Apr-12 20:32N 29°39' W 091°22'5 4.6
2014-Apr-12 19:25N 29°40' W 091°27'1 0.9
2014-Apr-12 18:29N 29°41' W 091°28'0 0.0
2014-Apr-12 16:11N 29°41' W 091°28'0 0.0
2014-Apr-12 15:24N 29°41' W 091°28'0 0.1
2014-Apr-12 13:31N 29°41' W 091°28'0 0.0
2014-Apr-12 11:30N 29°41' W 091°28'0 0.0
2014-Apr-12 10:33N 29°41' W 091°28'0 0.0
2014-Apr-12 09:33N 29°41' W 091°28'0 0.0
2014-Apr-12 08:27N 29°41' W 091°28'0 0.0
2014-Apr-11 16:09N 29°41' W 091°28'0 0.0
2014-Apr-11 14:26N 29°41' W 091°28'0 0.0
2014-Apr-11 13:32N 29°41' W 091°28'0 0.0
2014-Apr-11 12:33N 29°41' W 091°28'0 0.0
2014-Apr-11 11:30N 29°41' W 091°28'0 0.0
2014-Apr-11 10:29N 29°41' W 091°28'0 0.0
2014-Apr-11 09:27N 29°41' W 091°28'0 0.0
2014-Apr-11 08:30N 29°41' W 091°28'0 0.0
2014-Apr-11 07:29N 29°41' W 091°28'0 0.0
2014-Apr-11 05:14N 29°41' W 091°28'  

Dump ship's entire track history

sailing weather and tide predictions

Harry B. Settoon — WDE5658 — position and weather